< < Back
Terminal Aerodrome Forecast


Current Version              Previous Versions:   1  2  3  4  5  6  7  8  9  

Terminal Aerodrome Forecast

988
FTUS42 KTAE 202300
TAFVLD
TAF
KVLD 202336Z 2100/2124 00000KT P6SM BKN250
      TEMPO 2110/2112 5SM BR
     FM211600 35004KT P6SM SCT250=

Latest METAR

617
SAUS70 KWBC 210000
MTRVLD
METAR KVLD 202353Z AUTO 00000KT 10SM BKN055 21/16 A2997 RMK AO2 SLP157
T02060156 10283 20206 53002 TSNO


USA.gov is the U.S. government's official web portal to all federal, state and local government web resources and services.